Flight Track Log - Related Links

Times and Time Zones

All times are in EDT time to prevent confusion due to time zone crossing. See the SWA2004 flight status page for this flight to view local times or setup timezone preferences in your user account.

Time Position Orientation Groundspeed Altitude Reporting Facility
EDT Latitude Longitude Course Direction KTS MPH feet Rate Location/Type
Sun 09:07:51 PM 36.2000 -86.6500 15° North 221 254 3,400  Level Nashville TRACON
Sun 09:08:57 PM 36.2833 -86.6167 18° North 300 345 5,600 2,435 Climbing Nashville TRACON
Sun 09:10:09 PM 36.3594 -86.5767 23° Northeast 330 380 9,000 2,864 Climbing Memphis Center
Sun 09:11:09 PM 36.4417 -86.5392 20° North 314 361 11,900 2,950 Climbing Memphis Center
Sun 09:12:09 PM 36.5319 -86.4936 22° Northeast 328 377 14,900 2,900 Climbing Memphis Center
Sun 09:13:09 PM 36.6261 -86.4372 26° Northeast 351 404 17,700 3,000 Climbing Memphis Center
Sun 09:14:09 PM 36.7283 -86.3806 24° Northeast 380 437 20,900 2,612 Climbing Memphis Center
Sun 09:15:59 PM 36.9303 -86.2953 19° North 423 487 25,100 2,070 Climbing Indianapolis Center
Sun 09:17:00 PM 37.0483 -86.2289 24° Northeast 457 526 26,800 1,820 Climbing Indianapolis Center
Sun 09:18:01 PM 37.1689 -86.1556 26° Northeast 476 548 28,800 1,902 Climbing Indianapolis Center
Sun 09:19:03 PM 37.2911 -86.0817 26° Northeast 481 554 30,700 1,805 Climbing Indianapolis Center
Sun 09:20:04 PM 37.4153 -86.0036 27° Northeast 492 566 32,500 1,131 Climbing Indianapolis Center
Sun 09:21:05 PM 37.5400 -85.9281 26° Northeast 493 567 33,000 244 Climbing Indianapolis Center
Sun 09:22:07 PM 37.6781 -85.8431 26° Northeast 490 564 33,000  Level Indianapolis Center
Sun 09:23:08 PM 37.8003 -85.7678 26° Northeast 489 563 33,000  Level Indianapolis Center
Sun 09:24:09 PM 37.9211 -85.6919 26° Northeast 485 558 33,000  Level Indianapolis Center
Sun 09:25:10 PM 38.0422 -85.6164 26° Northeast 484 557 33,000  Level Indianapolis Center
Sun 09:26:12 PM 38.1583 -85.5258 32° Northeast 495 570 33,000  Level Indianapolis Center
Sun 09:27:13 PM 38.2681 -85.4225 36° Northeast 495 570 33,000  Level Indianapolis Center
Sun 09:28:14 PM 38.3742 -85.3208 37° Northeast 484 557 33,000 -244 Level Indianapolis Center
Sun 09:29:16 PM 38.4964 -85.2044 37° Northeast 481 554 32,500 -976 Descending Indianapolis Center
Sun 09:30:17 PM 38.6031 -85.1028 37° Northeast 479 551 31,000 -738 Descending Indianapolis Center
Sun 09:31:18 PM 38.7067 -85.0031 37° Northeast 469 540 31,000 -1,073 Level Indianapolis Center
Sun 09:32:20 PM 38.8208 -84.9261 28° Northeast 460 529 28,800 -2,146 Descending Indianapolis Center
Sun 09:33:21 PM 38.9219 -84.8200 39° Northeast 461 531 26,600 -2,311 Descending Indianapolis Center
Sun 09:34:22 PM 39.0103 -84.7086 44° Northeast 445 512 24,100 -1,707 Descending Indianapolis Center
Sun 09:35:24 PM 39.0828 -84.5825 53° Northeast 436 502 23,100 -976 Descending Indianapolis Center
Sun 09:36:25 PM 39.1525 -84.4539 55° Northeast 434 499 22,100 -984 Descending Indianapolis Center
Sun 09:37:26 PM 39.2222 -84.3292 54° Northeast 427 491 21,100 -984 Descending Indianapolis Center
Sun 09:38:27 PM 39.2897 -84.2042 55° Northeast 422 486 20,100 -976 Descending Indianapolis Center
Sun 09:39:29 PM 39.3433 -84.0697 63° Northeast 416 479 19,100 -976 Descending Indianapolis Center
Sun 09:40:30 PM 39.3944 -83.9378 63° Northeast 409 471 18,100 -1,082 Descending Indianapolis Center
Sun 09:41:31 PM 39.4525 -83.7847 64° Northeast 406 467 16,900 -1,377 Descending Indianapolis Center
Sun 09:42:32 PM 39.5022 -83.6561 63° Northeast 399 459 15,300 -1,892 Descending Indianapolis Center
Sun 09:43:22 PM 39.5406 -83.5528 64° Northeast 393 452 13,400 -2,098 Descending Indianapolis Center
Sun 09:44:35 PM 39.5981 -83.4075 63° Northeast 384 442 11,000 -1,276 Descending Indianapolis Center
Sun 09:45:29 PM 39.6586 -83.3100 51° Northeast 351 404 10,700 -522 Descending Indianapolis Center
Sun 09:46:30 PM 39.7053 -83.2125 58° Northeast 313 360 10,000 -313 Descending Indianapolis Center
Sun 09:47:24 PM 39.7411 -83.1192 63° Northeast 306 352 10,100  Climbing Indianapolis Center
Sun 09:48:31 PM 39.7822 -83.0100 64° Northeast 324 373 10,000 -793 Descending Indianapolis Center
Sun 09:49:25 PM 39.8056 -82.9122 73° East 307 353 8,500 -1,543 Descending Indianapolis Center
Sun 09:49:41 PM 39.8094 -82.8967 72° East 313 360 8,200 -1,770 Descending Indianapolis Center
Sun 09:50:26 PM 39.8294 -82.8064 74° East 305 351 6,700 -1,770 Descending Indianapolis Center
Sun 09:50:42 PM 39.8333 -82.7894 73° East 308 354 6,400 -689 Descending Indianapolis Center
Sun 09:51:27 PM 39.8506 -82.7108 74° East 262 302 6,000 -492 Descending Indianapolis Center
Sun 09:51:43 PM 39.8528 -82.6944 80° East 276 318 5,900 -818 Descending Indianapolis Center
Sun 09:52:33 PM 39.8903 -82.6447 45° Northeast 197 227 5,100 -934 Descending Indianapolis Center
Sun 09:53:45 PM 39.9503 -82.6253 14° North 198 228 4,000 -808 Descending Indianapolis Center
Sun 09:54:17 PM 39.9611 -82.6497 300° West 174 200 3,700 -968 Descending Indianapolis Center
Sun 09:54:47 PM 39.9783 -82.6767 310° West 179 206 3,000 -590 Descending Indianapolis Center
Sun 09:55:18 PM 39.9825 -82.7092 280° West 180 207 3,100 -98 Climbing Indianapolis Center
Sun 09:55:48 PM 39.9864 -82.7372 280° West 176 203 2,900 -700 Descending Indianapolis Center
Sun 09:56:18 PM 39.9869 -82.7697 271° West 168 193 2,400 -885 Descending Indianapolis Center
Sun 09:56:49 PM 39.9894 -82.7931 278° West 165 190 2,000 -689 Descending Indianapolis Center
Sun 09:57:19 PM 39.9897 -82.8217 271° West 136 157 1,700 -689 Descending Indianapolis Center
Sun 09:57:50 PM 39.9914 -82.8433 276° West 149 171 1,300 -326 Descending Indianapolis Center
Sun 09:58:51 PM 39.9936 -82.8917 273° West 147 169 1,200 -98 Descending Indianapolis Center
Sun 10:00:00 PM 39.9980 -82.8920 270° West  Level Estimated

Login

Don't have an account? Register now (free) for customized features, flight alerts, and more!